createdAt,value
2022-08-14T00:00:12.319Z,59.43
2022-08-14T00:04:31.978Z,59.86
2022-08-14T00:08:44.631Z,59.52
2022-08-14T00:12:56.603Z,59.58
2022-08-14T00:17:01.014Z,60.83
2022-08-14T00:21:04.854Z,61.16
2022-08-14T00:25:13.243Z,62.24
2022-08-14T00:29:17.555Z,64.03
2022-08-14T00:33:19.746Z,65.21
2022-08-14T00:37:21.803Z,66.41
2022-08-14T00:41:23.905Z,67.81
2022-08-14T00:45:27.329Z,68.50
2022-08-14T00:49:43.202Z,67.87
2022-08-14T00:53:46.306Z,67.29
2022-08-14T00:58:11.377Z,67.25
2022-08-14T01:02:15.828Z,64.68
2022-08-14T01:06:23.493Z,62.06
2022-08-14T01:10:50.733Z,62.00
2022-08-14T01:14:55.188Z,62.56
2022-08-14T01:19:19.531Z,63.35
2022-08-14T01:23:22.146Z,64.14
2022-08-14T01:27:25.121Z,64.67
2022-08-14T01:31:30.840Z,65.34
2022-08-14T01:36:04.965Z,65.70
2022-08-14T01:40:03.349Z,66.98
2022-08-14T01:44:32.369Z,67.94
2022-08-14T01:48:37.234Z,67.05
2022-08-14T01:52:58.613Z,66.77
2022-08-14T01:57:02.944Z,67.19
2022-08-14T02:01:08.081Z,67.93
2022-08-14T02:05:14.289Z,67.91
2022-08-14T02:09:22.281Z,69.25
2022-08-14T02:13:24.651Z,70.12
2022-08-14T02:17:28.660Z,70.87
2022-08-14T02:21:43.206Z,70.42
2022-08-14T02:25:54.536Z,70.75
2022-08-14T02:30:00.919Z,71.11
2022-08-14T02:34:14.795Z,71.29
2022-08-14T02:38:26.879Z,71.83
2022-08-14T02:42:36.939Z,70.75
2022-08-14T02:46:44.739Z,72.09
2022-08-14T02:50:53.527Z,73.71
2022-08-14T02:54:57.219Z,73.60
2022-08-14T02:59:01.849Z,73.53
2022-08-14T03:03:08.320Z,73.55
2022-08-14T03:07:10.651Z,73.64
2022-08-14T03:11:20.959Z,73.34
2022-08-14T03:15:25.642Z,73.33
2022-08-14T03:19:27.685Z,74.41
2022-08-14T03:23:38.281Z,76.16
2022-08-14T03:27:48.375Z,76.93
2022-08-14T03:32:00.966Z,77.52
2022-08-14T03:37:51.891Z,77.84
2022-08-14T03:40:30.620Z,77.96
2022-08-14T03:45:27.537Z,77.33
2022-08-14T03:48:57.793Z,77.63
2022-08-14T03:53:01.580Z,77.13
2022-08-14T03:57:04.175Z,76.71
2022-08-14T04:01:06.517Z,77.00
2022-08-14T04:05:12.741Z,78.78
2022-08-14T04:09:15.278Z,80.24
2022-08-14T04:13:19.247Z,80.39
2022-08-14T04:17:26.402Z,80.56
2022-08-14T04:21:29.516Z,80.37
2022-08-14T04:25:41.710Z,79.69
2022-08-14T04:29:45.254Z,79.42
2022-08-14T04:33:48.437Z,79.12
2022-08-14T04:38:36.683Z,77.97
2022-08-14T04:42:51.878Z,79.05
2022-08-14T04:47:13.303Z,78.68
2022-08-14T04:51:18.268Z,77.82
2022-08-14T04:55:20.535Z,77.80
2022-08-14T04:59:24.269Z,76.58
2022-08-14T05:03:30.047Z,72.52
2022-08-14T05:07:46.437Z,70.86
2022-08-14T05:11:51.320Z,69.46
2022-08-14T05:15:55.414Z,63.48
2022-08-14T05:21:04.346Z,61.03
2022-08-14T05:24:25.294Z,62.60
2022-08-14T05:28:35.410Z,64.28
2022-08-14T05:32:38.864Z,65.58
2022-08-14T05:36:40.939Z,66.64
2022-08-14T05:40:44.416Z,63.36
2022-08-14T05:44:46.664Z,51.56
2022-08-14T05:48:55.198Z,44.45
2022-08-14T05:52:59.695Z,40.02
2022-08-14T05:57:01.781Z,37.47
2022-08-14T06:01:04.414Z,35.46
2022-08-14T06:05:08.427Z,33.53
2022-08-14T06:09:10.566Z,32.55
2022-08-14T06:13:13.801Z,31.58
2022-08-14T06:17:25.870Z,31.05
2022-08-14T06:21:28.299Z,29.96
2022-08-14T06:25:31.960Z,29.37
2022-08-14T06:29:37.448Z,28.70
2022-08-14T06:35:04.755Z,28.40
2022-08-14T06:38:04.367Z,27.79
2022-08-14T06:42:06.940Z,27.03
2022-08-14T06:46:17.491Z,26.89
2022-08-14T06:50:33.682Z,27.20
2022-08-14T06:54:35.885Z,27.12
2022-08-14T06:58:37.939Z,26.24
2022-08-14T07:02:58.998Z,25.98
2022-08-14T07:07:01.241Z,26.22
2022-08-14T07:11:06.600Z,30.50
2022-08-14T07:15:09.367Z,34.66
2022-08-14T07:19:12.327Z,38.49
2022-08-14T07:23:20.752Z,41.48
2022-08-14T07:27:23.460Z,43.36
2022-08-14T07:31:28.369Z,45.29
2022-08-14T07:35:43.036Z,46.21
2022-08-14T07:39:53.023Z,48.25
2022-08-14T07:43:56.214Z,48.49
2022-08-14T07:47:59.991Z,49.17
2022-08-14T07:52:03.318Z,49.55
2022-08-14T07:56:09.052Z,50.20
2022-08-14T08:00:30.813Z,49.99
2022-08-14T08:04:37.053Z,49.78
2022-08-14T08:08:42.326Z,50.29
2022-08-14T08:12:53.890Z,50.82
2022-08-14T08:16:57.109Z,50.62
2022-08-14T08:21:00.982Z,50.70
2022-08-14T08:25:05.529Z,49.65
2022-08-14T08:29:22.471Z,49.67
2022-08-14T08:33:36.840Z,49.36
2022-08-14T08:37:40.070Z,50.03
2022-08-14T08:41:53.643Z,49.76
2022-08-14T08:46:01.878Z,49.35
2022-08-14T08:50:22.782Z,49.97
2022-08-14T08:54:32.697Z,49.90
2022-08-14T08:58:37.718Z,48.65
2022-08-14T09:02:52.584Z,49.15
2022-08-14T09:07:09.130Z,48.10
2022-08-14T09:11:18.820Z,47.77
2022-08-14T09:15:24.135Z,48.11
2022-08-14T09:19:27.606Z,47.73
2022-08-14T09:23:49.498Z,48.15
2022-08-14T09:27:55.772Z,48.37
2022-08-14T09:32:03.205Z,46.95
2022-08-14T09:36:34.338Z,45.77
2022-08-14T09:40:59.335Z,46.03
2022-08-14T09:45:07.938Z,45.75
2022-08-14T09:49:16.271Z,45.11
2022-08-14T09:54:18.503Z,44.53
2022-08-14T09:58:19.339Z,44.68
2022-08-14T10:02:31.334Z,44.38
2022-08-14T10:06:45.210Z,44.16
2022-08-14T10:10:53.376Z,43.88
2022-08-14T10:14:59.357Z,43.94
2022-08-14T10:19:09.563Z,44.04
2022-08-14T10:23:16.236Z,43.70
2022-08-14T10:27:26.734Z,43.81
2022-08-14T10:31:45.446Z,43.40
2022-08-14T10:35:48.380Z,43.38
2022-08-14T10:40:10.480Z,42.88
2022-08-14T10:44:21.373Z,43.08
2022-08-14T10:48:37.124Z,42.86
2022-08-14T10:52:43.105Z,40.81
2022-08-14T10:56:45.523Z,41.39
2022-08-14T11:00:57.269Z,41.40
2022-08-14T11:05:13.513Z,40.93
2022-08-14T11:09:17.221Z,40.46
2022-08-14T11:13:30.781Z,40.11
2022-08-14T11:17:37.365Z,39.96
2022-08-14T11:21:45.777Z,39.73
2022-08-14T11:25:53.396Z,40.10
2022-08-14T11:30:49.032Z,39.06
2022-08-14T11:34:29.963Z,39.03
2022-08-14T11:38:40.575Z,38.51
2022-08-14T11:42:57.577Z,38.29
2022-08-14T11:47:05.848Z,38.11
2022-08-14T11:51:23.726Z,38.30
2022-08-14T11:55:26.723Z,37.13
2022-08-14T11:59:32.750Z,37.02
2022-08-14T12:03:56.894Z,36.58
2022-08-14T12:08:05.826Z,36.27
2022-08-14T12:12:34.969Z,36.01
2022-08-14T12:16:38.406Z,36.64
2022-08-14T12:20:45.737Z,36.65
2022-08-14T12:24:54.371Z,36.19
2022-08-14T12:29:11.425Z,35.83
2022-08-14T12:33:33.875Z,36.43
2022-08-14T12:37:38.684Z,35.59
2022-08-14T12:41:53.720Z,34.58
2022-08-14T12:45:58.980Z,34.97
2022-08-14T12:50:04.337Z,35.44
2022-08-14T12:54:27.065Z,34.52
2022-08-14T12:58:48.246Z,33.98
2022-08-14T13:02:56.420Z,34.21
2022-08-14T13:07:07.250Z,33.72
2022-08-14T13:11:14.856Z,33.74
2022-08-14T13:15:19.529Z,33.73
2022-08-14T13:19:24.258Z,33.67
2022-08-14T13:23:36.074Z,33.23
2022-08-14T13:27:40.588Z,32.42
2022-08-14T13:31:47.042Z,31.69
2022-08-14T13:35:50.703Z,31.48
2022-08-14T13:39:56.739Z,31.87
2022-08-14T13:44:00.598Z,31.21
2022-08-14T13:48:03.064Z,31.07
2022-08-14T13:52:48.301Z,30.91
2022-08-14T13:56:36.708Z,29.89
2022-08-14T14:00:52.109Z,30.20
2022-08-14T14:05:00.662Z,30.76
2022-08-14T14:09:06.743Z,30.88
2022-08-14T14:13:15.777Z,30.68
2022-08-14T14:17:24.326Z,30.63
2022-08-14T14:21:28.635Z,30.44
2022-08-14T14:25:45.757Z,30.36
2022-08-14T14:29:55.651Z,30.70
2022-08-14T14:34:12.739Z,29.91
2022-08-14T14:38:32.582Z,30.74
2022-08-14T14:42:35.389Z,30.42
2022-08-14T14:46:41.605Z,30.29
2022-08-14T14:50:44.890Z,29.62
2022-08-14T14:54:48.392Z,30.44
2022-08-14T14:58:51.728Z,29.47
2022-08-14T15:02:57.835Z,29.57
2022-08-14T15:07:03.421Z,29.98
2022-08-14T15:11:05.725Z,30.52
2022-08-14T15:15:16.306Z,30.27
2022-08-14T15:19:18.611Z,29.50
2022-08-14T15:23:24.586Z,30.00
2022-08-14T15:27:26.999Z,30.36
2022-08-14T15:31:29.570Z,30.42
2022-08-14T15:35:33.890Z,30.89
2022-08-14T15:39:38.176Z,30.89
2022-08-14T15:43:40.709Z,31.18
2022-08-14T15:47:44.546Z,31.30
2022-08-14T15:51:46.884Z,30.60
2022-08-14T15:55:54.583Z,30.76
2022-08-14T16:00:21.368Z,31.03
2022-08-14T16:04:37.706Z,30.72
2022-08-14T16:08:41.118Z,30.64
2022-08-14T16:12:47.365Z,30.45
2022-08-14T16:17:00.330Z,30.63
2022-08-14T16:21:12.118Z,30.51
2022-08-14T16:25:18.087Z,30.16
2022-08-14T16:29:21.578Z,30.92
2022-08-14T16:33:56.575Z,31.17
2022-08-14T16:37:45.720Z,31.06
2022-08-14T16:41:52.366Z,31.19
2022-08-14T16:45:57.193Z,31.13
2022-08-14T16:50:04.311Z,31.11
2022-08-14T16:54:33.742Z,31.32
2022-08-14T16:58:32.639Z,31.64
2022-08-14T17:02:42.697Z,31.82
2022-08-14T17:06:52.877Z,31.88
2022-08-14T17:10:55.770Z,32.05
2022-08-14T17:15:09.957Z,32.17
2022-08-14T17:19:17.487Z,32.32
2022-08-14T17:23:21.975Z,32.63
2022-08-14T17:27:32.398Z,32.67
2022-08-14T17:31:58.837Z,32.60
2022-08-14T17:36:21.650Z,32.75
2022-08-14T17:40:29.877Z,32.78
2022-08-14T17:44:45.361Z,33.03
2022-08-14T17:49:13.816Z,33.23
2022-08-14T17:53:11.764Z,33.40
2022-08-14T17:57:16.128Z,33.76
2022-08-14T18:01:23.359Z,34.31
2022-08-14T18:06:08.589Z,35.34
2022-08-14T18:09:57.095Z,35.81
2022-08-14T18:14:01.647Z,36.33
2022-08-14T18:18:10.031Z,36.35
2022-08-14T18:22:31.362Z,36.67
2022-08-14T18:26:37.479Z,37.25
2022-08-14T18:30:58.385Z,37.99
2022-08-14T18:35:19.810Z,39.14
2022-08-14T18:39:25.913Z,39.33
2022-08-14T18:43:44.670Z,39.62
2022-08-14T18:48:14.801Z,40.11
2022-08-14T18:52:18.618Z,40.60
2022-08-14T18:56:59.478Z,41.34
2022-08-14T19:01:04.708Z,41.77
2022-08-14T19:05:08.637Z,41.76
2022-08-14T19:09:50.351Z,41.30
2022-08-14T19:13:52.980Z,41.15
2022-08-14T19:18:14.791Z,41.22
2022-08-14T19:22:29.882Z,41.49
2022-08-14T19:26:35.636Z,41.89
2022-08-14T19:30:39.263Z,42.07
2022-08-14T19:34:52.396Z,42.04
2022-08-14T19:38:57.700Z,42.04
2022-08-14T19:43:06.786Z,42.12
2022-08-14T19:47:13.193Z,42.54
2022-08-14T19:51:15.843Z,42.18
2022-08-14T19:55:20.333Z,42.54
2022-08-14T19:59:23.101Z,42.38
2022-08-14T20:03:25.662Z,42.63
2022-08-14T20:07:59.157Z,43.38
2022-08-14T20:12:05.194Z,43.88
2022-08-14T20:16:31.994Z,44.60
2022-08-14T20:20:41.186Z,45.01
2022-08-14T20:24:46.117Z,45.55
2022-08-14T20:28:51.583Z,44.92
2022-08-14T20:33:07.309Z,45.47
2022-08-14T20:37:14.257Z,46.46
2022-08-14T20:41:20.272Z,46.92
2022-08-14T20:45:25.198Z,47.54
2022-08-14T20:49:30.224Z,48.11
2022-08-14T20:53:35.403Z,47.91
2022-08-14T20:57:43.791Z,47.43
2022-08-14T21:01:51.602Z,47.57
2022-08-14T21:06:16.971Z,47.49
2022-08-14T21:10:35.357Z,47.64
2022-08-14T21:14:46.539Z,47.91
2022-08-14T21:18:56.756Z,48.43
2022-08-14T21:23:01.834Z,48.63
2022-08-14T21:27:13.058Z,48.91
2022-08-14T21:31:22.606Z,49.50
2022-08-14T21:35:24.707Z,49.83
2022-08-14T21:39:26.836Z,49.70
2022-08-14T21:43:32.298Z,49.53
2022-08-14T21:47:35.503Z,50.37
2022-08-14T21:51:53.552Z,50.68
2022-08-14T21:55:59.216Z,50.63
2022-08-14T22:00:35.131Z,50.49
2022-08-14T22:04:40.321Z,51.29
2022-08-14T22:08:46.246Z,51.39
2022-08-14T22:13:00.445Z,52.15
2022-08-14T22:17:12.980Z,52.82
2022-08-14T22:21:18.597Z,53.32
2022-08-14T22:25:20.815Z,53.15
2022-08-14T22:29:23.931Z,53.22
2022-08-14T22:33:31.023Z,53.94
2022-08-14T22:37:33.969Z,54.75
2022-08-14T22:41:43.045Z,55.05
2022-08-14T22:45:55.651Z,54.90
2022-08-14T22:50:32.023Z,54.77
2022-08-14T22:54:53.460Z,54.25
2022-08-14T22:58:43.832Z,54.31
2022-08-14T23:02:49.085Z,54.04
2022-08-14T23:07:02.754Z,53.76
2022-08-14T23:11:10.139Z,53.56
2022-08-14T23:15:15.247Z,53.43
2022-08-14T23:19:20.530Z,53.56
2022-08-14T23:23:23.362Z,55.29
2022-08-14T23:27:32.090Z,56.05
2022-08-14T23:31:51.357Z,55.76
2022-08-14T23:35:59.490Z,55.85
2022-08-14T23:40:02.265Z,55.31
2022-08-14T23:44:05.303Z,54.75
2022-08-14T23:48:10.132Z,55.14
2022-08-14T23:52:57.514Z,55.89
2022-08-14T23:56:36.602Z,55.83
